createdAt,value
2024-05-09T00:00:35.320Z,98867.13
2024-05-09T00:03:15.549Z,98872.03
2024-05-09T00:05:47.571Z,98867.69
2024-05-09T00:08:21.575Z,98868.84
2024-05-09T00:10:58.764Z,98863.78
2024-05-09T00:13:43.706Z,98823.09
2024-05-09T00:16:15.890Z,98860.34
2024-05-09T00:18:53.057Z,98856.25
2024-05-09T00:21:40.641Z,98849.22
2024-05-09T00:24:21.438Z,98835.66
2024-05-09T00:26:58.414Z,98846.28
2024-05-09T00:29:40.359Z,98849.88
2024-05-09T00:32:15.738Z,98849.22
2024-05-09T00:34:52.293Z,98847.59
2024-05-09T00:37:24.152Z,98845.94
2024-05-09T00:40:02.824Z,98846.91
2024-05-09T00:42:35.136Z,98852.16
2024-05-09T00:45:10.435Z,98841.94
2024-05-09T00:47:50.904Z,98840.31
2024-05-09T00:50:36.141Z,98841.84
2024-05-09T00:53:16.090Z,98847.59
2024-05-09T00:55:51.993Z,98828.72
2024-05-09T00:58:29.019Z,98846.69
2024-05-09T01:01:05.596Z,98855.19
2024-05-09T01:03:46.633Z,98849.50
2024-05-09T01:06:23.693Z,98851.78
2024-05-09T01:08:58.846Z,98852.56
2024-05-09T01:11:55.902Z,98836.69
2024-05-09T01:14:37.259Z,98852.25
2024-05-09T01:17:08.732Z,98852.25
2024-05-09T01:19:44.589Z,98846.03
2024-05-09T01:22:25.367Z,98848.66
2024-05-09T01:25:01.168Z,98847.50
2024-05-09T01:27:41.705Z,98847.28
2024-05-09T01:30:21.243Z,98852.00
2024-05-09T01:32:59.131Z,98844.16
2024-05-09T01:35:32.020Z,98818.72
2024-05-09T01:38:07.590Z,98858.78
2024-05-09T01:40:43.567Z,98799.59
2024-05-09T01:43:13.876Z,98851.94
2024-05-09T01:45:53.284Z,98850.63
2024-05-09T01:48:28.541Z,98845.53
2024-05-09T01:51:02.836Z,98840.88
2024-05-09T01:53:48.240Z,98846.88
2024-05-09T01:56:23.301Z,98852.81
2024-05-09T01:58:56.056Z,98831.66
2024-05-09T02:01:30.046Z,98834.81
2024-05-09T02:04:22.551Z,98827.75
2024-05-09T02:06:57.979Z,98844.94
2024-05-09T02:09:45.949Z,98840.38
2024-05-09T02:12:22.724Z,98838.88
2024-05-09T02:15:02.588Z,98844.59
2024-05-09T02:17:35.439Z,98837.59
2024-05-09T02:20:13.273Z,98851.75
2024-05-09T02:22:54.090Z,98841.00
2024-05-09T02:25:32.956Z,98832.19
2024-05-09T02:28:10.572Z,98828.50
2024-05-09T02:30:45.864Z,98838.41
2024-05-09T02:33:19.110Z,98836.28
2024-05-09T02:35:57.969Z,98840.63
2024-05-09T02:38:30.232Z,98832.75
2024-05-09T02:41:00.047Z,98826.56
2024-05-09T02:43:31.773Z,98830.16
2024-05-09T02:46:01.837Z,98821.97
2024-05-09T02:48:33.245Z,98805.19
2024-05-09T02:51:04.884Z,98805.41
2024-05-09T02:53:46.415Z,98811.84
2024-05-09T02:56:16.133Z,98802.13
2024-05-09T02:58:53.914Z,98784.25
2024-05-09T03:01:23.936Z,98788.66
2024-05-09T03:03:59.232Z,98804.75
2024-05-09T03:06:31.083Z,98806.47
2024-05-09T03:09:05.410Z,98806.94
2024-05-09T03:11:40.652Z,98808.69
2024-05-09T03:14:22.104Z,98811.78
2024-05-09T03:16:51.561Z,98799.72
2024-05-09T03:19:27.464Z,98795.09
2024-05-09T03:22:04.488Z,98810.97
2024-05-09T03:24:39.181Z,98808.69
2024-05-09T03:27:08.107Z,98808.88
2024-05-09T03:29:43.439Z,98799.03
2024-05-09T03:32:13.732Z,98799.03
2024-05-09T03:34:46.651Z,98818.66
2024-05-09T03:37:28.350Z,98819.47
2024-05-09T03:40:02.911Z,98808.06
2024-05-09T03:42:43.113Z,98816.13
2024-05-09T03:45:10.758Z,98821.19
2024-05-09T03:47:44.425Z,98830.50
2024-05-09T03:50:26.347Z,98821.25
2024-05-09T03:53:07.671Z,98816.69
2024-05-09T03:55:35.471Z,98825.22
2024-05-09T03:58:12.705Z,98820.44
2024-05-09T04:00:42.541Z,98827.72
2024-05-09T04:03:23.206Z,98801.44
2024-05-09T04:05:54.864Z,98827.69
2024-05-09T04:08:26.736Z,98832.75
2024-05-09T04:11:01.532Z,98825.22
2024-05-09T04:13:39.897Z,98823.63
2024-05-09T04:16:12.498Z,98836.69
2024-05-09T04:18:47.123Z,98839.66
2024-05-09T04:21:16.078Z,98837.47
2024-05-09T04:23:51.720Z,98836.53
2024-05-09T04:26:19.743Z,98848.25
2024-05-09T04:28:54.606Z,98856.78
2024-05-09T04:31:27.253Z,98845.84
2024-05-09T04:34:06.610Z,98858.28
2024-05-09T04:36:34.543Z,98856.31
2024-05-09T04:39:06.633Z,98854.19
2024-05-09T04:41:37.879Z,98848.91
2024-05-09T04:44:11.259Z,98865.81
2024-05-09T04:46:40.970Z,98874.84
2024-05-09T04:49:11.715Z,98873.19
2024-05-09T04:51:48.694Z,98883.19
2024-05-09T04:54:36.242Z,98876.91
2024-05-09T04:57:13.519Z,98883.59
2024-05-09T04:59:46.613Z,98879.91
2024-05-09T05:02:15.793Z,98886.69
2024-05-09T05:04:49.815Z,98834.44
2024-05-09T05:07:21.362Z,98888.09
2024-05-09T05:09:55.281Z,98879.66
2024-05-09T05:12:41.466Z,98882.84
2024-05-09T05:15:12.170Z,98890.31
2024-05-09T05:17:43.353Z,98894.94
2024-05-09T05:20:15.219Z,98871.00
2024-05-09T05:22:50.998Z,98888.03
2024-05-09T05:25:22.082Z,98898.59
2024-05-09T05:28:02.058Z,98894.16
2024-05-09T05:30:36.301Z,98878.66
2024-05-09T05:33:12.396Z,98883.31
2024-05-09T05:35:43.255Z,98873.00
2024-05-09T05:38:24.820Z,98885.03
2024-05-09T05:40:56.137Z,98891.59
2024-05-09T05:43:34.184Z,98881.44
2024-05-09T05:46:10.441Z,98893.75
2024-05-09T05:48:39.803Z,98900.44
2024-05-09T05:51:17.603Z,98904.25
2024-05-09T05:53:49.624Z,98903.44
2024-05-09T05:56:22.602Z,98903.13
2024-05-09T05:58:50.857Z,98900.50
2024-05-09T06:01:24.466Z,98894.94
2024-05-09T06:03:51.704Z,98911.38
2024-05-09T06:06:22.470Z,98905.97
2024-05-09T06:09:00.281Z,98905.31
2024-05-09T06:11:30.924Z,98908.47
2024-05-09T06:14:06.687Z,98902.59
2024-05-09T06:16:38.477Z,98895.56
2024-05-09T06:19:08.491Z,98887.22
2024-05-09T06:21:51.795Z,98901.81
2024-05-09T06:24:44.337Z,98916.25
2024-05-09T06:27:14.784Z,98891.31
2024-05-09T06:29:45.125Z,98911.50
2024-05-09T06:32:25.338Z,98903.47
2024-05-09T06:35:06.170Z,98915.16
2024-05-09T06:37:40.550Z,98914.50
2024-05-09T06:42:48.731Z,98912.22
2024-05-09T06:45:25.569Z,98918.75
2024-05-09T06:48:00.641Z,98897.59
2024-05-09T06:50:36.811Z,98909.91
2024-05-09T06:53:14.974Z,98904.50
2024-05-09T06:55:46.204Z,98913.47
2024-05-09T06:58:17.692Z,98907.06
2024-05-09T07:00:45.102Z,98903.97
2024-05-09T07:03:18.342Z,98852.53
2024-05-09T07:05:49.495Z,98900.34
2024-05-09T07:08:35.571Z,98904.28
2024-05-09T07:11:12.114Z,98900.81
2024-05-09T07:13:50.590Z,98891.38
2024-05-09T07:16:21.919Z,98899.47
2024-05-09T07:18:55.199Z,98893.63
2024-05-09T07:21:27.077Z,98903.63
2024-05-09T07:23:59.941Z,98885.53
2024-05-09T07:26:35.823Z,98883.69
2024-05-09T07:29:13.649Z,98891.31
2024-05-09T07:31:45.009Z,98887.28
2024-05-09T07:34:18.381Z,98892.31
2024-05-09T07:36:51.722Z,98896.66
2024-05-09T07:39:31.903Z,98910.47
2024-05-09T07:41:59.472Z,98895.91
2024-05-09T07:44:39.022Z,98893.97
2024-05-09T07:48:14.650Z,98890.66
2024-05-09T07:51:54.729Z,98897.81
2024-05-09T07:53:35.616Z,98892.75
2024-05-09T07:55:45.801Z,98889.34
2024-05-09T07:58:13.689Z,98895.53
2024-05-09T08:00:51.009Z,98890.31
2024-05-09T08:03:18.404Z,98885.69
2024-05-09T08:05:56.922Z,98892.16
2024-05-09T08:08:24.424Z,98887.25
2024-05-09T08:11:02.178Z,98872.69
2024-05-09T08:13:33.494Z,98886.75
2024-05-09T08:16:03.902Z,98884.28
2024-05-09T08:18:35.148Z,98858.13
2024-05-09T08:21:07.913Z,98829.53
2024-05-09T08:23:37.626Z,98882.50
2024-05-09T08:26:16.137Z,98874.94
2024-05-09T08:28:43.166Z,98882.72
2024-05-09T08:31:20.769Z,98868.66
2024-05-09T08:33:56.847Z,98878.19
2024-05-09T08:36:29.254Z,98887.44
2024-05-09T08:38:59.323Z,98882.63
2024-05-09T08:41:32.701Z,98878.09
2024-05-09T08:44:02.361Z,98880.69
2024-05-09T08:46:40.236Z,98868.78
2024-05-09T08:49:10.702Z,98890.91
2024-05-09T08:51:43.081Z,98887.75
2024-05-09T08:54:13.351Z,98878.91
2024-05-09T08:56:51.338Z,98881.22
2024-05-09T09:02:28.121Z,98875.63
2024-05-09T09:05:21.468Z,98879.25
2024-05-09T09:07:59.010Z,98871.19
2024-05-09T09:10:32.405Z,98872.25
2024-05-09T09:13:09.894Z,98868.03
2024-05-09T09:15:51.087Z,98866.88
2024-05-09T09:18:36.269Z,98859.75
2024-05-09T09:21:03.636Z,98872.25
2024-05-09T09:23:47.919Z,98874.41
2024-05-09T09:26:17.680Z,98872.41
2024-05-09T09:28:48.696Z,98872.06
2024-05-09T09:31:21.349Z,98862.44
2024-05-09T09:33:55.133Z,98877.94
2024-05-09T09:36:28.507Z,98875.44
2024-05-09T09:39:02.547Z,98874.94
2024-05-09T09:41:36.877Z,98868.66
2024-05-09T09:44:12.434Z,98875.31
2024-05-09T09:46:43.488Z,98872.44
2024-05-09T09:49:19.832Z,98873.19
2024-05-09T09:51:52.438Z,98880.16
2024-05-09T09:54:26.418Z,98880.16
2024-05-09T09:57:04.677Z,98874.56
2024-05-09T09:59:43.496Z,98879.91
2024-05-09T10:02:11.154Z,98878.28
2024-05-09T10:04:45.294Z,98871.03
2024-05-09T10:07:24.443Z,98885.25
2024-05-09T10:10:11.022Z,98878.50
2024-05-09T10:12:40.523Z,98880.44
2024-05-09T10:15:15.692Z,98885.56
2024-05-09T10:17:51.626Z,98881.28
2024-05-09T10:20:32.848Z,98879.22
2024-05-09T10:23:03.888Z,98873.31
2024-05-09T10:25:40.015Z,98878.31
2024-05-09T10:28:17.382Z,98874.78
2024-05-09T10:30:57.737Z,98879.66
2024-05-09T10:33:26.244Z,98879.22
2024-05-09T10:36:00.758Z,98854.06
2024-05-09T10:38:33.421Z,98860.47
2024-05-09T10:41:29.266Z,98861.03
2024-05-09T10:44:03.655Z,98861.78
2024-05-09T10:46:36.407Z,98849.59
2024-05-09T10:49:08.030Z,98863.91
2024-05-09T10:51:40.988Z,98862.75
2024-05-09T10:54:17.623Z,98844.56
2024-05-09T10:57:03.812Z,98853.81
2024-05-09T10:59:42.620Z,98806.38
2024-05-09T11:02:15.877Z,98857.00
2024-05-09T11:04:52.334Z,98849.63
2024-05-09T11:07:31.953Z,98849.59
2024-05-09T11:10:02.888Z,98841.25
2024-05-09T11:12:38.874Z,98850.66
2024-05-09T11:15:10.734Z,98850.03
2024-05-09T11:17:43.816Z,98832.56
2024-05-09T11:20:26.445Z,98830.19
2024-05-09T11:22:58.375Z,98841.06
2024-05-09T11:25:39.036Z,98835.47
2024-05-09T11:28:10.535Z,98840.34
2024-05-09T11:30:46.630Z,98829.19
2024-05-09T11:33:20.182Z,98834.66
2024-05-09T11:36:01.265Z,98837.34
2024-05-09T11:38:31.615Z,98814.25
2024-05-09T11:41:12.075Z,98831.78
2024-05-09T11:43:44.302Z,98805.44
2024-05-09T11:46:18.776Z,98821.56
2024-05-09T11:48:47.511Z,98820.75
2024-05-09T11:51:26.939Z,98821.41
2024-05-09T11:53:59.816Z,98813.16
2024-05-09T11:56:32.892Z,98824.03
2024-05-09T11:59:08.641Z,98822.03
2024-05-09T12:01:52.287Z,98813.44
2024-05-09T12:04:21.194Z,98808.84
2024-05-09T12:06:55.790Z,98802.13
2024-05-09T12:09:30.886Z,98807.53
2024-05-09T12:12:05.616Z,98808.78
2024-05-09T12:14:39.005Z,98800.63
2024-05-09T12:17:10.431Z,98796.28
2024-05-09T12:19:40.705Z,98800.41
2024-05-09T12:22:12.547Z,98794.66
2024-05-09T12:24:43.119Z,98792.38
2024-05-09T12:27:16.196Z,98791.56
2024-05-09T12:29:47.218Z,98794.31
2024-05-09T12:32:18.739Z,98791.69
2024-05-09T12:34:49.102Z,98791.56
2024-05-09T12:37:34.070Z,98786.25
2024-05-09T12:40:12.723Z,98787.13
2024-05-09T12:43:00.216Z,98773.81
2024-05-09T12:45:28.430Z,98779.13
2024-05-09T12:47:59.948Z,98777.56
2024-05-09T12:50:34.783Z,98772.56
2024-05-09T12:53:10.557Z,98776.19
2024-05-09T12:55:53.557Z,98779.94
2024-05-09T12:58:24.741Z,98770.94
2024-05-09T13:00:58.587Z,98782.97
2024-05-09T13:03:26.994Z,98768.31
2024-05-09T13:06:00.850Z,98768.91
2024-05-09T13:08:30.969Z,98762.09
2024-05-09T13:11:09.814Z,98761.81
2024-05-09T13:13:39.987Z,98748.88
2024-05-09T13:16:13.993Z,98757.38
2024-05-09T13:18:44.817Z,98757.22
2024-05-09T13:21:16.672Z,98753.47
2024-05-09T13:23:45.110Z,98755.81
2024-05-09T13:26:16.886Z,98757.22
2024-05-09T13:28:45.598Z,98751.16
2024-05-09T13:31:23.457Z,98732.28
2024-05-09T13:34:02.672Z,98744.94
2024-05-09T13:36:36.547Z,98752.56
2024-05-09T13:39:08.179Z,98735.19
2024-05-09T13:41:43.079Z,98743.03
2024-05-09T13:44:13.272Z,98738.22
2024-05-09T13:46:55.375Z,98730.56
2024-05-09T13:49:26.366Z,98730.75
2024-05-09T13:52:01.411Z,98716.16
2024-05-09T13:54:28.967Z,98713.31
2024-05-09T13:57:09.887Z,98700.94
2024-05-09T13:59:41.708Z,98703.31
2024-05-09T14:02:17.284Z,98726.75
2024-05-09T14:04:45.884Z,98732.72
2024-05-09T14:07:17.988Z,98720.59
2024-05-09T14:09:54.123Z,98718.22
2024-05-09T14:12:29.751Z,98719.69
2024-05-09T14:14:59.669Z,98699.00
2024-05-09T14:17:34.291Z,98717.38
2024-05-09T14:20:23.818Z,98716.78
2024-05-09T14:23:03.877Z,98710.72
2024-05-09T14:25:47.241Z,98713.09
2024-05-09T14:28:22.506Z,98706.53
2024-05-09T14:30:51.900Z,98710.50
2024-05-09T14:33:27.481Z,98707.81
2024-05-09T14:36:11.937Z,98702.84
2024-05-09T14:38:42.618Z,98709.06
2024-05-09T14:41:22.123Z,98711.41
2024-05-09T14:43:52.451Z,98702.38
2024-05-09T14:46:23.908Z,98709.63
2024-05-09T14:48:57.926Z,98682.25
2024-05-09T14:51:36.694Z,98704.09
2024-05-09T14:54:04.612Z,98702.22
2024-05-09T14:59:27.716Z,98699.31
2024-05-09T15:02:04.380Z,98701.97
2024-05-09T15:04:41.464Z,98690.56
2024-05-09T15:07:21.543Z,98692.09
2024-05-09T15:09:59.084Z,98697.91
2024-05-09T15:12:36.266Z,98669.38
2024-05-09T15:15:09.732Z,98690.00
2024-05-09T15:17:39.590Z,98669.09
2024-05-09T15:20:16.775Z,98689.69
2024-05-09T15:23:03.936Z,98659.72
2024-05-09T15:25:41.679Z,98682.72
2024-05-09T15:28:19.493Z,98679.34
2024-05-09T15:31:00.693Z,98679.44
2024-05-09T15:33:30.098Z,98667.66
2024-05-09T15:36:03.419Z,98680.09
2024-05-09T15:38:32.229Z,98682.41
2024-05-09T15:41:08.167Z,98682.31
2024-05-09T15:43:41.601Z,98678.22
2024-05-09T15:46:20.278Z,98651.06
2024-05-09T15:48:51.507Z,98669.75
2024-05-09T15:51:25.263Z,98668.75
2024-05-09T15:54:03.646Z,98649.88
2024-05-09T15:56:35.131Z,98671.19
2024-05-09T15:59:05.351Z,98668.09
2024-05-09T16:04:20.689Z,98644.88
2024-05-09T16:06:56.404Z,98656.78
2024-05-09T16:09:25.146Z,98631.84
2024-05-09T16:12:00.896Z,98671.28
2024-05-09T16:14:29.242Z,98651.00
2024-05-09T16:17:02.921Z,98661.34
2024-05-09T16:19:40.004Z,98663.88
2024-05-09T16:22:14.995Z,98666.66
2024-05-09T16:27:33.860Z,98673.53
2024-05-09T16:30:09.332Z,98669.75
2024-05-09T16:32:54.913Z,98674.28
2024-05-09T16:35:27.054Z,98671.91
2024-05-09T16:38:00.250Z,98670.50
2024-05-09T16:40:39.950Z,98668.34
2024-05-09T16:43:26.820Z,98670.66
2024-05-09T16:45:58.248Z,98673.38
2024-05-09T16:48:31.992Z,98667.97
2024-05-09T16:51:00.170Z,98665.13
2024-05-09T16:53:30.969Z,98665.53
2024-05-09T16:56:01.265Z,98654.59
2024-05-09T16:58:36.697Z,98675.13
2024-05-09T17:01:16.722Z,98669.38
2024-05-09T17:04:01.970Z,98669.19
2024-05-09T17:06:34.642Z,98673.00
2024-05-09T17:09:11.996Z,98670.75
2024-05-09T17:11:46.188Z,98622.91
2024-05-09T17:14:17.695Z,98656.84
2024-05-09T17:16:48.562Z,98671.69
2024-05-09T17:19:25.795Z,98666.78
2024-05-09T17:22:03.398Z,98675.94
2024-05-09T17:24:35.283Z,98679.28
2024-05-09T17:27:03.279Z,98666.59
2024-05-09T17:29:44.822Z,98684.25
2024-05-09T17:32:25.522Z,98668.38
2024-05-09T17:34:59.305Z,98689.75
2024-05-09T17:37:34.392Z,98691.44
2024-05-09T17:40:14.164Z,98695.09
2024-05-09T17:42:51.535Z,98693.50
2024-05-09T17:45:21.033Z,98702.47
2024-05-09T17:47:53.466Z,98703.84
2024-05-09T17:50:37.612Z,98703.94
2024-05-09T17:53:16.129Z,98702.41
2024-05-09T17:55:44.388Z,98710.34
2024-05-09T17:58:15.739Z,98714.00
2024-05-09T18:00:49.862Z,98718.78
2024-05-09T18:03:23.789Z,98711.31
2024-05-09T18:05:54.553Z,98701.03
2024-05-09T18:08:32.152Z,98717.00
2024-05-09T18:11:00.602Z,98712.69
2024-05-09T18:13:36.151Z,98724.69
2024-05-09T18:16:10.421Z,98733.16
2024-05-09T18:18:50.593Z,98725.22
2024-05-09T18:21:20.984Z,98733.91
2024-05-09T18:23:58.760Z,98738.44
2024-05-09T18:26:31.406Z,98739.03
2024-05-09T18:29:12.650Z,98737.69
2024-05-09T18:31:46.594Z,98735.44
2024-05-09T18:34:18.702Z,98743.63
2024-05-09T18:36:47.934Z,98735.72
2024-05-09T18:39:24.126Z,98753.09
2024-05-09T18:41:57.246Z,98750.78
2024-05-09T18:44:28.900Z,98757.44
2024-05-09T18:47:01.373Z,98761.41
2024-05-09T18:49:36.400Z,98770.59
2024-05-09T18:52:07.633Z,98772.06
2024-05-09T18:54:39.558Z,98775.88
2024-05-09T18:57:10.327Z,98773.56
2024-05-09T18:59:51.984Z,98783.44
2024-05-09T19:02:22.475Z,98782.34
2024-05-09T19:04:57.778Z,98786.94
2024-05-09T19:07:31.516Z,98791.47
2024-05-09T19:10:22.151Z,98800.31
2024-05-09T19:12:54.103Z,98792.88
2024-05-09T19:15:29.430Z,98806.13
2024-05-09T19:18:00.070Z,98813.06
2024-05-09T19:20:35.325Z,98800.31
2024-05-09T19:23:11.164Z,98813.22
2024-05-09T19:25:45.390Z,98823.38
2024-05-09T19:28:20.110Z,98832.09
2024-05-09T19:30:58.405Z,98815.22
2024-05-09T19:33:31.004Z,98833.06
2024-05-09T19:36:03.150Z,98825.69
2024-05-09T19:38:35.970Z,98839.94
2024-05-09T19:41:12.563Z,98731.63
2024-05-09T19:43:41.282Z,98835.63
2024-05-09T19:46:11.636Z,98838.38
2024-05-09T19:48:43.499Z,98860.59
2024-05-09T19:51:20.299Z,98862.97
2024-05-09T19:53:48.132Z,98846.41
2024-05-09T19:56:18.473Z,98861.22
2024-05-09T19:58:49.036Z,98851.97
2024-05-09T20:01:26.645Z,98865.66
2024-05-09T20:04:01.635Z,98871.53
2024-05-09T20:06:39.446Z,98867.78
2024-05-09T20:09:08.274Z,98853.00
2024-05-09T20:11:51.715Z,98870.81
2024-05-09T20:14:33.965Z,98875.09
2024-05-09T20:17:11.128Z,98876.38
2024-05-09T20:19:40.483Z,98880.31
2024-05-09T20:22:18.158Z,98885.06
2024-05-09T20:24:52.754Z,98887.09
2024-05-09T20:27:28.209Z,98893.81
2024-05-09T20:29:59.196Z,98885.13
2024-05-09T20:32:40.757Z,98891.81
2024-05-09T20:35:13.893Z,98878.13
2024-05-09T20:37:50.266Z,98852.31
2024-05-09T20:40:25.616Z,98905.56
2024-05-09T20:43:12.511Z,98907.84
2024-05-09T20:45:43.329Z,98879.50
2024-05-09T20:48:22.827Z,98889.75
2024-05-09T20:50:59.476Z,98912.22
2024-05-09T20:53:40.564Z,98914.38
2024-05-09T20:56:13.928Z,98915.44
2024-05-09T20:58:55.213Z,98909.38
2024-05-09T21:01:27.925Z,98914.41
2024-05-09T21:04:03.689Z,98897.88
2024-05-09T21:06:38.461Z,98915.56
2024-05-09T21:09:17.933Z,98914.44
2024-05-09T21:11:49.507Z,98916.94
2024-05-09T21:14:31.585Z,98912.41
2024-05-09T21:17:03.674Z,98920.34
2024-05-09T21:19:44.578Z,98919.28
2024-05-09T21:22:16.511Z,98916.75
2024-05-09T21:24:55.841Z,98912.84
2024-05-09T21:27:37.876Z,98927.50
2024-05-09T21:30:22.835Z,98924.94
2024-05-09T21:32:59.421Z,98919.69
2024-05-09T21:35:40.391Z,98936.06
2024-05-09T21:38:10.548Z,98937.75
2024-05-09T21:40:50.783Z,98940.53
2024-05-09T21:43:18.916Z,98936.72
2024-05-09T21:45:54.662Z,98918.78
2024-05-09T21:48:22.081Z,98934.59
2024-05-09T21:50:55.222Z,98920.22
2024-05-09T21:53:28.204Z,98936.13
2024-05-09T21:56:03.855Z,98940.47
2024-05-09T21:58:45.262Z,98934.44
2024-05-09T22:01:22.473Z,98937.19
2024-05-09T22:03:50.610Z,98934.44
2024-05-09T22:06:28.835Z,98943.19
2024-05-09T22:08:59.417Z,98931.69
2024-05-09T22:11:41.508Z,98941.00
2024-05-09T22:14:14.321Z,98944.03
2024-05-09T22:16:53.047Z,98947.56
2024-05-09T22:19:23.551Z,98938.97
2024-05-09T22:22:00.524Z,98948.69
2024-05-09T22:24:30.823Z,98948.00
2024-05-09T22:27:09.112Z,98905.59
2024-05-09T22:29:36.225Z,98946.44
2024-05-09T22:32:11.276Z,98956.09
2024-05-09T22:34:38.817Z,98952.38
2024-05-09T22:37:17.825Z,98952.81
2024-05-09T22:39:49.752Z,98928.22
2024-05-09T22:42:23.494Z,98957.28
2024-05-09T22:44:51.940Z,98951.88
2024-05-09T22:47:24.613Z,98952.94
2024-05-09T22:49:55.941Z,98949.53
2024-05-09T22:52:31.286Z,98940.66
2024-05-09T22:55:01.678Z,98947.03
2024-05-09T22:57:32.463Z,98946.78
2024-05-09T23:00:00.971Z,98948.03
2024-05-09T23:02:32.673Z,98943.94
2024-05-09T23:05:01.026Z,98940.66
2024-05-09T23:07:38.495Z,98938.31
2024-05-09T23:10:16.542Z,98944.59
2024-05-09T23:12:56.301Z,98943.22
2024-05-09T23:15:26.021Z,98944.22
2024-05-09T23:17:58.417Z,98917.69
2024-05-09T23:20:38.494Z,98937.91
2024-05-09T23:23:15.554Z,98893.69
2024-05-09T23:26:08.967Z,98936.50
2024-05-09T23:28:42.123Z,98941.84
2024-05-09T23:31:16.847Z,98949.38
2024-05-09T23:33:49.933Z,98931.00
2024-05-09T23:36:36.215Z,98937.97
2024-05-09T23:39:10.863Z,98936.31
2024-05-09T23:41:45.587Z,98927.97
2024-05-09T23:44:13.236Z,98898.59
2024-05-09T23:46:43.318Z,98923.84
2024-05-09T23:49:17.610Z,98919.41
2024-05-09T23:51:56.626Z,98895.38
2024-05-09T23:54:31.398Z,98917.41
2024-05-09T23:57:10.469Z,98934.25
2024-05-09T23:59:44.731Z,98893.53
